sensor_id;sensor_type;location;lat;lon;timestamp;P1;durP1;ratioP1;P2;durP2;ratioP2
30010;SDS011;16851;53.564;8.112;2022-07-21T00:01:29;14.40;;;4.82;;
30010;SDS011;16851;53.564;8.112;2022-07-21T00:06:34;17.00;;;5.05;;
30010;SDS011;16851;53.564;8.112;2022-07-21T00:11:36;15.65;;;5.63;;
30010;SDS011;16851;53.564;8.112;2022-07-21T00:16:39;13.48;;;5.28;;
30010;SDS011;16851;53.564;8.112;2022-07-21T00:21:42;18.27;;;4.82;;
30010;SDS011;16851;53.564;8.112;2022-07-21T00:26:44;14.50;;;5.00;;
30010;SDS011;16851;53.564;8.112;2022-07-21T00:31:47;14.38;;;5.50;;
30010;SDS011;16851;53.564;8.112;2022-07-21T00:36:54;10.70;;;5.03;;
30010;SDS011;16851;53.564;8.112;2022-07-21T00:42:00;14.25;;;5.68;;
30010;SDS011;16851;53.564;8.112;2022-07-21T00:47:06;13.88;;;5.75;;
30010;SDS011;16851;53.564;8.112;2022-07-21T00:52:08;16.73;;;6.57;;
30010;SDS011;16851;53.564;8.112;2022-07-21T00:57:11;18.45;;;6.07;;
30010;SDS011;16851;53.564;8.112;2022-07-21T01:02:13;19.88;;;6.45;;
30010;SDS011;16851;53.564;8.112;2022-07-21T01:07:27;18.08;;;6.25;;
30010;SDS011;16851;53.564;8.112;2022-07-21T01:12:42;13.95;;;6.60;;
30010;SDS011;16851;53.564;8.112;2022-07-21T01:17:47;22.50;;;7.50;;
30010;SDS011;16851;53.564;8.112;2022-07-21T01:22:57;18.58;;;6.32;;
30010;SDS011;16851;53.564;8.112;2022-07-21T01:27:59;22.92;;;7.05;;
30010;SDS011;16851;53.564;8.112;2022-07-21T01:33:09;20.65;;;7.13;;
30010;SDS011;16851;53.564;8.112;2022-07-21T01:38:11;19.30;;;7.07;;
30010;SDS011;16851;53.564;8.112;2022-07-21T01:43:33;21.10;;;7.22;;
30010;SDS011;16851;53.564;8.112;2022-07-21T01:48:43;14.63;;;7.22;;
30010;SDS011;16851;53.564;8.112;2022-07-21T01:53:49;15.60;;;7.25;;
30010;SDS011;16851;53.564;8.112;2022-07-21T01:58:54;17.17;;;7.28;;
30010;SDS011;16851;53.564;8.112;2022-07-21T02:03:58;12.73;;;6.93;;
30010;SDS011;16851;53.564;8.112;2022-07-21T02:09:02;10.80;;;7.15;;
30010;SDS011;16851;53.564;8.112;2022-07-21T02:14:12;11.43;;;6.63;;
30010;SDS011;16851;53.564;8.112;2022-07-21T02:19:14;13.95;;;6.57;;
30010;SDS011;16851;53.564;8.112;2022-07-21T02:24:16;14.90;;;7.10;;
30010;SDS011;16851;53.564;8.112;2022-07-21T02:29:18;12.60;;;7.32;;
30010;SDS011;16851;53.564;8.112;2022-07-21T02:34:20;12.30;;;7.53;;
30010;SDS011;16851;53.564;8.112;2022-07-21T02:39:25;11.80;;;7.30;;
30010;SDS011;16851;53.564;8.112;2022-07-21T02:44:31;16.13;;;8.07;;
30010;SDS011;16851;53.564;8.112;2022-07-21T02:49:34;12.65;;;7.05;;
30010;SDS011;16851;53.564;8.112;2022-07-21T02:54:36;14.27;;;7.78;;
30010;SDS011;16851;53.564;8.112;2022-07-21T02:59:38;11.07;;;7.55;;
30010;SDS011;16851;53.564;8.112;2022-07-21T03:04:43;10.38;;;7.53;;
30010;SDS011;16851;53.564;8.112;2022-07-21T03:09:45;14.02;;;7.95;;
30010;SDS011;16851;53.564;8.112;2022-07-21T03:14:47;10.25;;;7.40;;
30010;SDS011;16851;53.564;8.112;2022-07-21T03:19:53;13.60;;;8.00;;
30010;SDS011;16851;53.564;8.112;2022-07-21T03:24:59;13.07;;;8.77;;
30010;SDS011;16851;53.564;8.112;2022-07-21T03:30:08;13.85;;;8.60;;
30010;SDS011;16851;53.564;8.112;2022-07-21T03:35:17;13.27;;;8.60;;
30010;SDS011;16851;53.564;8.112;2022-07-21T03:40:24;14.18;;;9.18;;
30010;SDS011;16851;53.564;8.112;2022-07-21T03:45:31;15.43;;;9.55;;
30010;SDS011;16851;53.564;8.112;2022-07-21T03:50:35;14.93;;;10.75;;
30010;SDS011;16851;53.564;8.112;2022-07-21T03:55:41;16.98;;;10.73;;
30010;SDS011;16851;53.564;8.112;2022-07-21T04:00:43;17.05;;;11.60;;
30010;SDS011;16851;53.564;8.112;2022-07-21T04:05:46;18.73;;;12.30;;
30010;SDS011;16851;53.564;8.112;2022-07-21T04:10:50;19.60;;;14.43;;
30010;SDS011;16851;53.564;8.112;2022-07-21T04:15:53;25.40;;;16.92;;
30010;SDS011;16851;53.564;8.112;2022-07-21T04:20:55;24.13;;;15.93;;
30010;SDS011;16851;53.564;8.112;2022-07-21T04:25:57;20.45;;;15.82;;
30010;SDS011;16851;53.564;8.112;2022-07-21T04:31:05;22.77;;;16.85;;
30010;SDS011;16851;53.564;8.112;2022-07-21T04:36:08;26.70;;;18.38;;
30010;SDS011;16851;53.564;8.112;2022-07-21T04:41:10;24.48;;;17.85;;
30010;SDS011;16851;53.564;8.112;2022-07-21T04:46:15;23.35;;;17.95;;
30010;SDS011;16851;53.564;8.112;2022-07-21T04:51:17;26.50;;;17.40;;
30010;SDS011;16851;53.564;8.112;2022-07-21T04:56:19;29.35;;;18.00;;
30010;SDS011;16851;53.564;8.112;2022-07-21T05:01:22;24.65;;;18.83;;
30010;SDS011;16851;53.564;8.112;2022-07-21T05:06:27;26.02;;;18.52;;
30010;SDS011;16851;53.564;8.112;2022-07-21T05:11:32;28.33;;;20.80;;
30010;SDS011;16851;53.564;8.112;2022-07-21T05:16:34;27.20;;;20.65;;
30010;SDS011;16851;53.564;8.112;2022-07-21T05:21:36;33.85;;;23.52;;
30010;SDS011;16851;53.564;8.112;2022-07-21T05:26:39;29.95;;;22.55;;
30010;SDS011;16851;53.564;8.112;2022-07-21T05:31:41;29.27;;;22.48;;
30010;SDS011;16851;53.564;8.112;2022-07-21T05:36:44;28.77;;;22.65;;
30010;SDS011;16851;53.564;8.112;2022-07-21T05:41:46;37.20;;;26.33;;
30010;SDS011;16851;53.564;8.112;2022-07-21T05:46:48;34.80;;;25.52;;
30010;SDS011;16851;53.564;8.112;2022-07-21T05:51:52;33.78;;;23.13;;
30010;SDS011;16851;53.564;8.112;2022-07-21T05:56:54;32.78;;;24.42;;
30010;SDS011;16851;53.564;8.112;2022-07-21T06:01:56;34.20;;;23.98;;
30010;SDS011;16851;53.564;8.112;2022-07-21T06:06:58;26.85;;;21.58;;
30010;SDS011;16851;53.564;8.112;2022-07-21T06:12:00;33.72;;;24.52;;
30010;SDS011;16851;53.564;8.112;2022-07-21T06:17:04;35.40;;;25.55;;
30010;SDS011;16851;53.564;8.112;2022-07-21T06:22:06;43.13;;;27.88;;
30010;SDS011;16851;53.564;8.112;2022-07-21T06:27:11;32.35;;;24.30;;
30010;SDS011;16851;53.564;8.112;2022-07-21T06:32:15;31.42;;;24.40;;
30010;SDS011;16851;53.564;8.112;2022-07-21T06:37:20;34.08;;;25.10;;
30010;SDS011;16851;53.564;8.112;2022-07-21T06:42:23;31.58;;;22.92;;
30010;SDS011;16851;53.564;8.112;2022-07-21T06:47:27;31.17;;;22.77;;
30010;SDS011;16851;53.564;8.112;2022-07-21T06:52:34;27.17;;;21.00;;
30010;SDS011;16851;53.564;8.112;2022-07-21T06:57:37;30.30;;;22.45;;
30010;SDS011;16851;53.564;8.112;2022-07-21T07:02:44;28.25;;;21.95;;
30010;SDS011;16851;53.564;8.112;2022-07-21T07:07:47;30.20;;;22.80;;
30010;SDS011;16851;53.564;8.112;2022-07-21T07:12:52;23.92;;;18.85;;
30010;SDS011;16851;53.564;8.112;2022-07-21T07:18:14;32.85;;;24.50;;
30010;SDS011;16851;53.564;8.112;2022-07-21T07:23:16;28.17;;;22.35;;
30010;SDS011;16851;53.564;8.112;2022-07-21T07:28:19;28.90;;;21.92;;
30010;SDS011;16851;53.564;8.112;2022-07-21T07:33:21;32.58;;;25.00;;
30010;SDS011;16851;53.564;8.112;2022-07-21T07:38:23;30.40;;;23.67;;
30010;SDS011;16851;53.564;8.112;2022-07-21T07:43:25;33.03;;;25.30;;
30010;SDS011;16851;53.564;8.112;2022-07-21T07:48:27;31.50;;;25.85;;
30010;SDS011;16851;53.564;8.112;2022-07-21T07:53:32;30.75;;;25.23;;
30010;SDS011;16851;53.564;8.112;2022-07-21T07:58:36;33.45;;;24.42;;
30010;SDS011;16851;53.564;8.112;2022-07-21T08:03:41;36.15;;;27.98;;
30010;SDS011;16851;53.564;8.112;2022-07-21T08:08:43;34.78;;;26.40;;
30010;SDS011;16851;53.564;8.112;2022-07-21T08:13:48;37.47;;;27.08;;
30010;SDS011;16851;53.564;8.112;2022-07-21T08:18:58;35.38;;;26.52;;
30010;SDS011;16851;53.564;8.112;2022-07-21T08:24:03;35.28;;;25.45;;
30010;SDS011;16851;53.564;8.112;2022-07-21T08:29:09;35.75;;;27.10;;
30010;SDS011;16851;53.564;8.112;2022-07-21T08:34:13;38.97;;;26.40;;
30010;SDS011;16851;53.564;8.112;2022-07-21T08:39:15;35.95;;;27.23;;
30010;SDS011;16851;53.564;8.112;2022-07-21T08:44:17;39.05;;;26.27;;
30010;SDS011;16851;53.564;8.112;2022-07-21T08:49:19;34.38;;;26.45;;
30010;SDS011;16851;53.564;8.112;2022-07-21T08:54:26;33.78;;;25.80;;
30010;SDS011;16851;53.564;8.112;2022-07-21T08:59:29;40.42;;;25.90;;
30010;SDS011;16851;53.564;8.112;2022-07-21T09:04:34;40.30;;;29.58;;
30010;SDS011;16851;53.564;8.112;2022-07-21T09:09:53;33.25;;;26.48;;
30010;SDS011;16851;53.564;8.112;2022-07-21T09:15:16;35.13;;;28.10;;
30010;SDS011;16851;53.564;8.112;2022-07-21T09:20:21;34.72;;;27.25;;
30010;SDS011;16851;53.564;8.112;2022-07-21T09:25:36;30.52;;;25.52;;
30010;SDS011;16851;53.564;8.112;2022-07-21T09:30:54;30.63;;;26.10;;
30010;SDS011;16851;53.564;8.112;2022-07-21T09:41:07;31.30;;;25.50;;
30010;SDS011;16851;53.564;8.112;2022-07-21T09:46:19;34.95;;;27.40;;
30010;SDS011;16851;53.564;8.112;2022-07-21T09:56:38;22.73;;;19.92;;
30010;SDS011;16851;53.564;8.112;2022-07-21T10:01:43;39.10;;;24.30;;
30010;SDS011;16851;53.564;8.112;2022-07-21T10:06:50;33.53;;;23.27;;
30010;SDS011;16851;53.564;8.112;2022-07-21T10:11:55;29.58;;;22.83;;
30010;SDS011;16851;53.564;8.112;2022-07-21T10:16:59;27.38;;;22.13;;
30010;SDS011;16851;53.564;8.112;2022-07-21T10:22:07;26.20;;;20.45;;
30010;SDS011;16851;53.564;8.112;2022-07-21T10:27:17;27.60;;;20.33;;
30010;SDS011;16851;53.564;8.112;2022-07-21T10:32:48;22.13;;;18.70;;
30010;SDS011;16851;53.564;8.112;2022-07-21T10:37:53;21.13;;;18.83;;
30010;SDS011;16851;53.564;8.112;2022-07-21T10:48:04;22.25;;;18.75;;
30010;SDS011;16851;53.564;8.112;2022-07-21T10:53:13;23.08;;;20.58;;
30010;SDS011;16851;53.564;8.112;2022-07-21T11:03:42;24.17;;;21.58;;
30010;SDS011;16851;53.564;8.112;2022-07-21T11:19:48;24.77;;;22.17;;
30010;SDS011;16851;53.564;8.112;2022-07-21T11:24:56;27.45;;;24.60;;
30010;SDS011;16851;53.564;8.112;2022-07-21T11:30:05;27.17;;;24.20;;
30010;SDS011;16851;53.564;8.112;2022-07-21T11:35:08;27.88;;;24.27;;
30010;SDS011;16851;53.564;8.112;2022-07-21T11:40:15;27.08;;;24.27;;
30010;SDS011;16851;53.564;8.112;2022-07-21T11:45:22;31.88;;;28.23;;
30010;SDS011;16851;53.564;8.112;2022-07-21T11:50:31;29.08;;;26.08;;
30010;SDS011;16851;53.564;8.112;2022-07-21T11:55:36;31.85;;;28.50;;
30010;SDS011;16851;53.564;8.112;2022-07-21T12:00:38;31.45;;;28.20;;
30010;SDS011;16851;53.564;8.112;2022-07-21T12:05:43;30.75;;;27.38;;
30010;SDS011;16851;53.564;8.112;2022-07-21T12:10:47;29.58;;;26.58;;
30010;SDS011;16851;53.564;8.112;2022-07-21T12:15:52;29.67;;;26.55;;
30010;SDS011;16851;53.564;8.112;2022-07-21T12:21:01;23.48;;;21.08;;
30010;SDS011;16851;53.564;8.112;2022-07-21T12:26:04;21.20;;;19.00;;
30010;SDS011;16851;53.564;8.112;2022-07-21T12:31:09;19.05;;;17.00;;
30010;SDS011;16851;53.564;8.112;2022-07-21T12:36:13;22.90;;;20.50;;
30010;SDS011;16851;53.564;8.112;2022-07-21T12:41:16;18.77;;;16.88;;
30010;SDS011;16851;53.564;8.112;2022-07-21T12:46:34;17.85;;;15.93;;
30010;SDS011;16851;53.564;8.112;2022-07-21T12:51:37;17.60;;;15.80;;
30010;SDS011;16851;53.564;8.112;2022-07-21T12:56:40;14.50;;;12.98;;
30010;SDS011;16851;53.564;8.112;2022-07-21T13:01:42;14.73;;;11.93;;
30010;SDS011;16851;53.564;8.112;2022-07-21T13:06:46;13.38;;;12.07;;
30010;SDS011;16851;53.564;8.112;2022-07-21T13:11:51;11.95;;;9.88;;
30010;SDS011;16851;53.564;8.112;2022-07-21T13:16:56;13.23;;;11.82;;
30010;SDS011;16851;53.564;8.112;2022-07-21T13:22:02;10.55;;;8.85;;
30010;SDS011;16851;53.564;8.112;2022-07-21T13:27:07;12.30;;;9.98;;
30010;SDS011;16851;53.564;8.112;2022-07-21T13:32:09;11.85;;;9.48;;
30010;SDS011;16851;53.564;8.112;2022-07-21T13:37:12;9.27;;;8.27;;
30010;SDS011;16851;53.564;8.112;2022-07-21T13:42:30;10.13;;;9.02;;
30010;SDS011;16851;53.564;8.112;2022-07-21T13:47:55;9.70;;;7.00;;
30010;SDS011;16851;53.564;8.112;2022-07-21T13:52:57;8.00;;;7.28;;
30010;SDS011;16851;53.564;8.112;2022-07-21T13:58:01;15.85;;;6.50;;
30010;SDS011;16851;53.564;8.112;2022-07-21T14:03:04;7.10;;;6.43;;
30010;SDS011;16851;53.564;8.112;2022-07-21T14:08:06;6.40;;;5.80;;
30010;SDS011;16851;53.564;8.112;2022-07-21T14:13:10;6.63;;;5.90;;
30010;SDS011;16851;53.564;8.112;2022-07-21T14:18:12;6.40;;;5.70;;
30010;SDS011;16851;53.564;8.112;2022-07-21T14:23:21;10.10;;;7.30;;
30010;SDS011;16851;53.564;8.112;2022-07-21T14:28:29;8.23;;;7.43;;
30010;SDS011;16851;53.564;8.112;2022-07-21T14:33:32;8.27;;;7.43;;
30010;SDS011;16851;53.564;8.112;2022-07-21T14:38:41;11.05;;;9.95;;
30010;SDS011;16851;53.564;8.112;2022-07-21T14:43:44;11.60;;;10.15;;
30010;SDS011;16851;53.564;8.112;2022-07-21T14:48:51;11.48;;;9.57;;
30010;SDS011;16851;53.564;8.112;2022-07-21T14:53:53;12.63;;;10.15;;
30010;SDS011;16851;53.564;8.112;2022-07-21T14:58:56;12.32;;;11.02;;
30010;SDS011;16851;53.564;8.112;2022-07-21T15:04:00;13.30;;;11.90;;
30010;SDS011;16851;53.564;8.112;2022-07-21T15:09:05;16.85;;;15.05;;
30010;SDS011;16851;53.564;8.112;2022-07-21T15:14:07;18.08;;;16.35;;
30010;SDS011;16851;53.564;8.112;2022-07-21T15:19:14;17.48;;;15.68;;
30010;SDS011;16851;53.564;8.112;2022-07-21T15:24:16;16.13;;;14.43;;
30010;SDS011;16851;53.564;8.112;2022-07-21T15:29:20;16.25;;;14.52;;
30010;SDS011;16851;53.564;8.112;2022-07-21T15:34:23;20.95;;;18.75;;
30010;SDS011;16851;53.564;8.112;2022-07-21T15:39:25;21.08;;;18.83;;
30010;SDS011;16851;53.564;8.112;2022-07-21T15:44:33;23.30;;;20.90;;
30010;SDS011;16851;53.564;8.112;2022-07-21T15:49:35;29.55;;;23.50;;
30010;SDS011;16851;53.564;8.112;2022-07-21T15:54:37;27.00;;;23.83;;
30010;SDS011;16851;53.564;8.112;2022-07-21T15:59:59;18.35;;;15.00;;
30010;SDS011;16851;53.564;8.112;2022-07-21T16:05:13;14.75;;;11.77;;
30010;SDS011;16851;53.564;8.112;2022-07-21T16:10:16;17.08;;;13.43;;
30010;SDS011;16851;53.564;8.112;2022-07-21T16:15:24;16.48;;;13.38;;
30010;SDS011;16851;53.564;8.112;2022-07-21T16:20:28;15.88;;;13.63;;
30010;SDS011;16851;53.564;8.112;2022-07-21T16:25:48;16.77;;;13.80;;
30010;SDS011;16851;53.564;8.112;2022-07-21T16:30:54;18.05;;;15.30;;
30010;SDS011;16851;53.564;8.112;2022-07-21T16:36:05;23.08;;;17.42;;
30010;SDS011;16851;53.564;8.112;2022-07-21T16:41:11;20.73;;;16.58;;
30010;SDS011;16851;53.564;8.112;2022-07-21T16:46:16;21.25;;;17.75;;
30010;SDS011;16851;53.564;8.112;2022-07-21T16:51:18;16.45;;;14.25;;
30010;SDS011;16851;53.564;8.112;2022-07-21T16:56:20;15.40;;;13.80;;
30010;SDS011;16851;53.564;8.112;2022-07-21T17:01:27;19.05;;;13.43;;
30010;SDS011;16851;53.564;8.112;2022-07-21T17:06:29;15.88;;;13.77;;
30010;SDS011;16851;53.564;8.112;2022-07-21T17:11:41;17.77;;;14.48;;
30010;SDS011;16851;53.564;8.112;2022-07-21T17:16:47;19.13;;;16.13;;
30010;SDS011;16851;53.564;8.112;2022-07-21T17:21:53;16.83;;;15.02;;
30010;SDS011;16851;53.564;8.112;2022-07-21T17:26:55;19.38;;;15.48;;
30010;SDS011;16851;53.564;8.112;2022-07-21T17:32:01;17.48;;;15.23;;
30010;SDS011;16851;53.564;8.112;2022-07-21T17:37:18;16.02;;;14.20;;
30010;SDS011;16851;53.564;8.112;2022-07-21T17:42:27;19.02;;;15.48;;
30010;SDS011;16851;53.564;8.112;2022-07-21T17:47:30;16.15;;;13.98;;
30010;SDS011;16851;53.564;8.112;2022-07-21T17:52:32;17.23;;;14.48;;
30010;SDS011;16851;53.564;8.112;2022-07-21T17:57:36;18.27;;;15.90;;
30010;SDS011;16851;53.564;8.112;2022-07-21T18:02:56;21.25;;;18.23;;
30010;SDS011;16851;53.564;8.112;2022-07-21T18:07:59;20.17;;;15.98;;
30010;SDS011;16851;53.564;8.112;2022-07-21T18:13:04;21.05;;;16.88;;
30010;SDS011;16851;53.564;8.112;2022-07-21T18:18:06;21.73;;;15.35;;
30010;SDS011;16851;53.564;8.112;2022-07-21T18:23:14;24.95;;;15.13;;
30010;SDS011;16851;53.564;8.112;2022-07-21T18:28:18;21.10;;;14.63;;
30010;SDS011;16851;53.564;8.112;2022-07-21T18:33:20;17.77;;;13.98;;
30010;SDS011;16851;53.564;8.112;2022-07-21T18:38:23;20.38;;;15.32;;
30010;SDS011;16851;53.564;8.112;2022-07-21T18:43:25;16.00;;;13.18;;
30010;SDS011;16851;53.564;8.112;2022-07-21T18:48:27;17.25;;;13.68;;
30010;SDS011;16851;53.564;8.112;2022-07-21T18:53:49;18.65;;;14.88;;
30010;SDS011;16851;53.564;8.112;2022-07-21T18:58:54;20.17;;;13.57;;
30010;SDS011;16851;53.564;8.112;2022-07-21T19:03:56;16.65;;;12.23;;
30010;SDS011;16851;53.564;8.112;2022-07-21T19:08:58;16.63;;;13.47;;
30010;SDS011;16851;53.564;8.112;2022-07-21T19:14:05;14.60;;;12.02;;
30010;SDS011;16851;53.564;8.112;2022-07-21T19:19:11;16.85;;;11.93;;
30010;SDS011;16851;53.564;8.112;2022-07-21T19:24:15;18.38;;;12.60;;
30010;SDS011;16851;53.564;8.112;2022-07-21T19:29:21;16.33;;;11.93;;
30010;SDS011;16851;53.564;8.112;2022-07-21T19:34:24;13.98;;;11.52;;
30010;SDS011;16851;53.564;8.112;2022-07-21T19:39:29;22.48;;;13.00;;
30010;SDS011;16851;53.564;8.112;2022-07-21T19:44:31;15.07;;;10.70;;
30010;SDS011;16851;53.564;8.112;2022-07-21T19:49:36;11.65;;;6.35;;
30010;SDS011;16851;53.564;8.112;2022-07-21T19:54:42;12.48;;;3.72;;
30010;SDS011;16851;53.564;8.112;2022-07-21T19:59:44;12.23;;;3.17;;
30010;SDS011;16851;53.564;8.112;2022-07-21T20:04:51;12.75;;;3.90;;
30010;SDS011;16851;53.564;8.112;2022-07-21T20:09:57;12.05;;;3.80;;
30010;SDS011;16851;53.564;8.112;2022-07-21T20:15:02;9.90;;;3.00;;
30010;SDS011;16851;53.564;8.112;2022-07-21T20:20:06;8.20;;;3.40;;
30010;SDS011;16851;53.564;8.112;2022-07-21T20:25:10;14.75;;;3.25;;
30010;SDS011;16851;53.564;8.112;2022-07-21T20:30:16;10.63;;;3.63;;
30010;SDS011;16851;53.564;8.112;2022-07-21T20:35:20;10.25;;;3.33;;
30010;SDS011;16851;53.564;8.112;2022-07-21T20:40:25;8.88;;;3.15;;
30010;SDS011;16851;53.564;8.112;2022-07-21T20:45:46;7.30;;;2.35;;
30010;SDS011;16851;53.564;8.112;2022-07-21T20:50:48;6.38;;;2.38;;
30010;SDS011;16851;53.564;8.112;2022-07-21T20:55:59;4.97;;;2.28;;
30010;SDS011;16851;53.564;8.112;2022-07-21T21:01:18;5.63;;;2.63;;
30010;SDS011;16851;53.564;8.112;2022-07-21T21:06:22;6.18;;;2.42;;
30010;SDS011;16851;53.564;8.112;2022-07-21T21:11:26;8.05;;;3.13;;
30010;SDS011;16851;53.564;8.112;2022-07-21T21:16:34;7.10;;;2.30;;
30010;SDS011;16851;53.564;8.112;2022-07-21T21:21:37;8.00;;;2.15;;
30010;SDS011;16851;53.564;8.112;2022-07-21T21:26:39;6.35;;;2.45;;
30010;SDS011;16851;53.564;8.112;2022-07-21T21:31:44;8.65;;;2.42;;
30010;SDS011;16851;53.564;8.112;2022-07-21T21:36:50;4.38;;;1.63;;
30010;SDS011;16851;53.564;8.112;2022-07-21T21:41:51;5.30;;;1.98;;
30010;SDS011;16851;53.564;8.112;2022-07-21T21:46:56;4.85;;;1.73;;
30010;SDS011;16851;53.564;8.112;2022-07-21T21:52:03;9.65;;;1.80;;
30010;SDS011;16851;53.564;8.112;2022-07-21T21:57:09;3.88;;;2.10;;
30010;SDS011;16851;53.564;8.112;2022-07-21T22:02:13;5.20;;;2.17;;
30010;SDS011;16851;53.564;8.112;2022-07-21T22:07:15;4.82;;;2.38;;
30010;SDS011;16851;53.564;8.112;2022-07-21T22:12:20;9.27;;;2.80;;
30010;SDS011;16851;53.564;8.112;2022-07-21T22:17:30;9.20;;;2.80;;
30010;SDS011;16851;53.564;8.112;2022-07-21T22:22:32;9.55;;;3.13;;
30010;SDS011;16851;53.564;8.112;2022-07-21T22:27:39;15.43;;;4.20;;
30010;SDS011;16851;53.564;8.112;2022-07-21T22:32:41;7.78;;;3.42;;
30010;SDS011;16851;53.564;8.112;2022-07-21T22:37:44;15.98;;;3.70;;
30010;SDS011;16851;53.564;8.112;2022-07-21T22:42:46;7.18;;;3.08;;
30010;SDS011;16851;53.564;8.112;2022-07-21T22:47:48;8.95;;;3.25;;
30010;SDS011;16851;53.564;8.112;2022-07-21T22:52:52;13.10;;;2.67;;
30010;SDS011;16851;53.564;8.112;2022-07-21T22:57:56;14.18;;;2.65;;
30010;SDS011;16851;53.564;8.112;2022-07-21T23:03:00;12.50;;;2.50;;
30010;SDS011;16851;53.564;8.112;2022-07-21T23:08:03;11.82;;;2.47;;
30010;SDS011;16851;53.564;8.112;2022-07-21T23:13:08;14.85;;;2.80;;
30010;SDS011;16851;53.564;8.112;2022-07-21T23:18:12;23.90;;;3.10;;
30010;SDS011;16851;53.564;8.112;2022-07-21T23:23:15;18.10;;;3.20;;
30010;SDS011;16851;53.564;8.112;2022-07-21T23:28:20;18.08;;;3.22;;
30010;SDS011;16851;53.564;8.112;2022-07-21T23:33:26;14.98;;;3.10;;
30010;SDS011;16851;53.564;8.112;2022-07-21T23:38:30;17.77;;;3.40;;
30010;SDS011;16851;53.564;8.112;2022-07-21T23:43:32;16.73;;;3.47;;
30010;SDS011;16851;53.564;8.112;2022-07-21T23:48:39;14.48;;;2.90;;
30010;SDS011;16851;53.564;8.112;2022-07-21T23:53:45;14.32;;;3.30;;
30010;SDS011;16851;53.564;8.112;2022-07-21T23:58:50;18.52;;;3.03;;
